Time;durP1;ratioP1;P1;durP2;ratioP2;P2;SDS_P1;SDS_P2;PMS_P1;PMS_P2;Temp;Humidity;BMP_temperature;BMP_pressure;BME280_temperature;BME280_humidity;BME280_pressure;Samples;Min_cycle;Max_cycle;Signal;HPM_P1;HPM_P2
2022/07/06 00:00:10;;;;;;;3.73;3.30;;;17.90;50.20;;;16.95;52.52;98332.25;5002386;28;20467;-77
2022/07/06 00:02:38;;;;;;;3.83;3.13;;;17.80;50.40;;;16.95;52.49;98332.25;5003025;28;20455;-73
2022/07/06 00:05:06;;;;;;;4.10;3.47;;;17.80;50.70;;;16.91;52.67;98335.72;4991580;28;20482;-72
2022/07/06 00:07:33;;;;;;;4.13;3.73;;;17.70;50.70;;;16.83;52.62;98334.22;5012188;28;20502;-71
2022/07/06 00:10:01;;;;;;;4.43;3.27;;;17.70;50.80;;;16.71;53.03;98337.88;4999542;28;20491;-71
2022/07/06 00:12:28;;;;;;;3.50;3.20;;;17.60;51.00;;;16.35;53.74;98296.38;4995467;28;20959;-72
2022/07/06 00:14:56;;;;;;;3.40;3.20;;;17.50;51.10;;;16.53;54.10;98340.84;5010340;28;20456;-73
2022/07/06 00:17:24;;;;;;;3.50;3.20;;;17.40;51.30;;;16.56;54.12;98343.06;5019618;28;20957;-73
2022/07/06 00:19:51;;;;;;;3.63;3.33;;;17.40;51.40;;;16.45;54.44;98335.78;5017719;28;20467;-74
2022/07/06 00:22:19;;;;;;;3.80;3.50;;;17.30;51.50;;;16.43;54.63;98342.31;5000136;28;20468;-76
2022/07/06 00:24:46;;;;;;;3.80;3.50;;;17.30;51.70;;;16.31;55.03;98338.00;4994286;28;20479;-74
2022/07/06 00:27:13;;;;;;;7.83;3.60;;;17.20;51.80;;;16.22;55.04;98343.03;5010469;28;20444;-76
2022/07/06 00:29:43;;;;;;;3.80;3.50;;;17.10;51.90;;;16.19;55.45;98351.69;5004460;28;20564;-72
2022/07/06 00:32:12;;;;;;;3.63;3.33;;;17.10;52.50;;;16.20;55.36;98347.91;4998439;28;21232;-72
2022/07/06 00:34:40;;;;;;;3.63;3.33;;;17.10;52.30;;;16.20;55.35;98354.16;5002193;28;20931;-71
2022/07/06 00:37:07;;;;;;;4.63;3.47;;;17.10;52.40;;;16.09;55.96;98355.06;5013710;28;20885;-71
2022/07/06 00:39:35;;;;;;;4.07;3.77;;;17.00;52.50;;;16.06;56.36;98350.91;5016499;28;20895;-72
2022/07/06 00:42:03;;;;;;;4.50;4.10;;;17.00;52.70;;;16.02;56.14;98357.09;4997810;28;20556;-77
2022/07/06 00:44:32;;;;;;;4.40;3.87;;;16.90;52.90;;;16.00;56.57;98349.16;4997192;28;21070;-71
2022/07/06 00:47:00;;;;;;;4.07;3.67;;;16.90;53.10;;;15.97;56.97;98365.97;5001855;28;20550;-76
2022/07/06 00:52:15;;;;;;;4.57;4.10;;;16.80;53.40;;;15.93;57.43;98362.94;4993875;28;20456;-74
2022/07/06 00:54:43;;;;;;;4.10;3.80;;;16.80;53.60;;;15.92;57.17;98347.66;4996134;28;20470;-71
2022/07/06 00:57:11;;;;;;;4.27;3.97;;;16.80;53.70;;;15.91;57.21;98353.34;5011961;28;20459;-72
2022/07/06 00:59:39;;;;;;;4.10;3.90;;;16.80;53.80;;;15.97;57.01;98350.47;4998114;28;21018;-73
2022/07/06 01:02:06;;;;;;;4.73;4.33;;;16.80;54.10;;;15.79;57.71;98351.44;4999194;28;20492;-72
2022/07/06 01:04:34;;;;;;;4.37;4.03;;;16.70;54.10;;;15.78;58.32;98351.69;5001048;28;20517;-71
2022/07/06 01:07:02;;;;;;;5.37;4.30;;;16.70;54.40;;;15.76;58.19;98351.94;5004463;28;20451;-74
2022/07/06 01:09:29;;;;;;;5.20;4.67;;;16.60;54.40;;;15.65;58.13;98334.56;5005111;28;20463;-70
2022/07/06 01:11:57;;;;;;;4.03;3.73;;;16.60;54.50;;;15.73;58.40;98349.69;5011710;28;20478;-71
2022/07/06 01:14:24;;;;;;;6.07;4.50;;;16.60;54.70;;;15.69;58.46;98353.94;4991354;28;20518;-71
2022/07/06 01:16:52;;;;;;;4.50;4.10;;;16.60;54.90;;;15.69;58.42;98340.31;5002629;28;20815;-74
2022/07/06 01:19:20;;;;;;;4.73;4.20;;;16.60;55.10;;;15.65;58.92;98358.22;5001159;28;20475;-71
2022/07/06 01:21:48;;;;;;;4.70;4.30;;;16.50;55.10;;;15.62;59.18;98353.25;4996252;28;20487;-71
2022/07/06 01:24:15;;;;;;;4.67;4.37;;;16.50;55.30;;;15.55;59.34;98356.97;4997638;28;20455;-71
2022/07/06 01:26:43;;;;;;;4.33;4.03;;;16.50;55.50;;;15.47;59.38;98351.88;5012307;28;20543;-74
2022/07/06 01:29:10;;;;;;;4.80;4.40;;;16.40;55.80;;;15.42;59.54;98346.31;5000899;28;20475;-77
2022/07/06 01:31:48;;;;;;;4.27;3.87;;;16.30;56.00;;;15.38;59.95;98353.28;4998580;28;20462;-72
2022/07/06 01:34:16;;;;;;;4.30;3.90;;;16.30;56.30;;;15.40;60.27;98352.00;5013850;28;20471;-72
2022/07/06 01:36:43;;;;;;;4.50;4.10;;;16.30;56.60;;;15.20;60.80;98352.38;4997306;28;20463;-77
2022/07/06 01:39:13;;;;;;;5.03;4.63;;;16.10;57.00;;;14.84;61.51;98321.63;4992801;28;20458;-77
2022/07/06 01:41:40;;;;;;;4.93;4.43;;;16.10;57.50;;;15.13;61.77;98362.56;5010536;28;20455;-73
2022/07/06 01:44:08;;;;;;;5.93;3.97;;;16.00;57.90;;;15.11;61.61;98364.69;5000445;28;20451;-71
2022/07/06 01:46:35;;;;;;;4.90;4.50;;;16.00;58.10;;;15.05;61.81;98354.72;4995686;28;20498;-71
2022/07/06 01:49:02;;;;;;;4.43;4.13;;;15.90;58.40;;;15.02;62.24;98345.97;4997353;28;20463;-72
2022/07/06 01:51:30;;;;;;;5.60;4.57;;;15.90;58.90;;;14.91;62.39;98359.59;4998423;28;20547;-73
2022/07/06 01:53:57;;;;;;;5.03;4.53;;;15.80;58.80;;;14.84;62.66;98355.06;4999564;28;20463;-72
2022/07/06 01:56:26;;;;;;;5.00;4.50;;;15.70;59.30;;;14.95;62.60;98353.44;4998970;28;20462;-74
2022/07/06 01:58:53;;;;;;;6.03;4.80;;;15.70;59.50;;;14.86;62.65;98347.53;4996564;28;20863;-70
2022/07/06 02:01:21;;;;;;;4.50;4.10;;;15.70;59.50;;;14.60;63.20;98343.31;4998054;28;20468;-71
2022/07/06 02:03:48;;;;;;;6.50;4.90;;;15.60;59.90;;;14.59;63.17;98344.38;4999236;28;20545;-70
2022/07/06 02:06:16;;;;;;;4.93;4.53;;;15.50;60.30;;;14.57;63.40;98341.91;5000554;28;20479;-72
2022/07/06 02:08:44;;;;;;;4.67;4.27;;;15.50;60.80;;;14.68;63.49;98350.28;5003896;28;20501;-72
2022/07/06 02:11:11;;;;;;;5.33;4.83;;;15.50;61.00;;;14.56;63.48;98344.84;4996528;28;20555;-71
2022/07/06 02:13:40;;;;;;;4.80;4.40;;;15.50;61.00;;;14.48;63.83;98347.88;4997830;28;21035;-76
2022/07/06 02:16:08;;;;;;;5.10;4.10;;;15.40;61.50;;;14.42;63.99;98341.50;5002141;28;20459;-72
2022/07/06 02:18:36;;;;;;;5.20;4.70;;;15.40;61.70;;;14.43;63.77;98346.69;5003028;28;20503;-72
2022/07/06 02:21:04;;;;;;;5.33;4.20;;;15.40;61.70;;;14.37;63.77;98339.50;5005591;28;20477;-72
2022/07/06 02:23:31;;;;;;;4.93;4.60;;;15.40;61.90;;;14.36;63.91;98359.56;5017938;28;20455;-71
2022/07/06 02:25:59;;;;;;;6.10;4.37;;;15.30;61.90;;;14.32;64.55;98352.94;5002170;28;20491;-72
2022/07/06 02:28:26;;;;;;;5.13;4.33;;;15.30;62.30;;;14.28;64.11;98346.31;5000705;28;20463;-71
2022/07/06 02:30:54;;;;;;;4.77;4.23;;;15.20;62.50;;;14.37;63.84;98361.22;5008497;28;20533;-72
2022/07/06 02:33:22;;;;;;;5.07;4.43;;;15.20;62.70;;;14.60;63.46;98359.63;4998550;28;20468;-71
2022/07/06 02:35:49;;;;;;;5.87;4.27;;;15.40;62.40;;;14.78;62.89;98366.06;5000283;28;21038;-72
2022/07/06 02:38:16;;;;;;;5.10;4.60;;;15.60;62.00;;;14.67;63.09;98365.81;4996170;28;20592;-73
2022/07/06 02:40:44;;;;;;;5.23;4.83;;;15.60;62.10;;;14.72;62.56;98360.50;5004552;28;20824;-74
2022/07/06 02:43:11;;;;;;;5.20;4.80;;;15.60;61.60;;;14.79;62.55;98368.56;4999589;28;20510;-77
2022/07/06 02:45:38;;;;;;;4.83;4.13;;;15.70;61.40;;;14.88;62.34;98360.88;5011155;28;20489;-72
2022/07/06 02:48:07;;;;;;;6.03;4.30;;;15.70;61.10;;;14.82;62.26;98361.84;5011403;28;20545;-74
2022/07/06 02:50:35;;;;;;;4.80;4.40;;;15.80;61.00;;;14.74;62.50;98363.00;5006681;28;20471;-71
2022/07/06 02:53:02;;;;;;;4.47;4.17;;;15.70;61.30;;;14.78;62.32;98360.63;4999002;28;20471;-74
2022/07/06 02:55:30;;;;;;;4.57;4.27;;;15.70;61.20;;;14.77;62.38;98372.56;5004822;28;20463;-71
2022/07/06 02:57:57;;;;;;;4.80;4.40;;;15.70;61.60;;;14.63;63.27;98364.59;4996101;28;20459;-70
2022/07/06 03:00:24;;;;;;;5.43;4.90;;;15.60;61.70;;;14.53;63.54;98359.72;5003385;28;20490;-70
2022/07/06 03:02:52;;;;;;;5.10;4.60;;;15.50;61.90;;;14.54;63.35;98366.81;5003590;28;20520;-70
2022/07/06 03:05:20;;;;;;;4.83;4.43;;;15.50;62.40;;;14.36;64.08;98373.16;5000963;28;20486;-73
2022/07/06 03:07:48;;;;;;;5.43;4.80;;;15.30;62.80;;;14.39;64.38;98369.13;4997581;28;20537;-69
2022/07/06 03:10:15;;;;;;;5.10;4.70;;;15.30;63.40;;;14.55;64.06;98373.91;4996877;28;20467;-73
2022/07/06 03:12:43;;;;;;;5.10;4.60;;;15.40;63.20;;;14.53;64.06;98375.22;4997983;28;20460;-74
2022/07/06 03:15:12;;;;;;;4.37;4.07;;;15.40;63.20;;;14.38;64.34;98378.34;5001886;28;20476;-71
2022/07/06 03:17:40;;;;;;;7.20;4.33;;;15.30;63.50;;;14.27;64.51;98377.25;4997853;28;20456;-73
2022/07/06 03:20:08;;;;;;;5.00;4.60;;;15.20;63.70;;;14.28;64.72;98384.34;4998094;28;20520;-70
2022/07/06 03:22:36;;;;;;;5.50;5.00;;;15.20;64.10;;;14.40;64.30;98379.78;5018154;28;20871;-72
2022/07/06 03:25:05;;;;;;;4.47;3.93;;;15.30;64.30;;;14.48;64.14;98381.34;5002179;28;20455;-71
2022/07/06 03:27:33;;;;;;;5.60;5.07;;;15.30;64.00;;;14.38;64.43;98387.34;5002329;28;20557;-73
2022/07/06 03:30:01;;;;;;;6.13;5.63;;;15.30;63.90;;;14.24;65.49;98388.59;5002998;28;20463;-73
2022/07/06 03:32:29;;;;;;;6.00;5.50;;;15.20;64.50;;;14.36;64.88;98384.03;4996941;28;20518;-73
2022/07/06 03:34:56;;;;;;;5.57;5.00;;;15.30;64.70;;;14.29;64.80;98380.56;5002062;28;21033;-74
2022/07/06 03:37:23;;;;;;;5.93;5.43;;;15.30;64.80;;;14.28;65.34;98387.06;5001621;28;20520;-73
2022/07/06 03:39:51;;;;;;;5.40;5.00;;;15.20;65.10;;;14.27;65.61;98388.13;5000517;28;20463;-75
2022/07/06 03:42:19;;;;;;;6.00;4.90;;;15.20;65.30;;;14.48;65.21;98389.50;4998831;28;20475;-72
2022/07/06 03:44:46;;;;;;;7.67;5.80;;;15.30;65.40;;;14.61;64.49;98377.59;5001039;28;20592;-71
2022/07/06 03:47:13;;;;;;;6.47;5.87;;;15.50;65.00;;;14.61;64.39;98388.47;5006130;28;20525;-70
2022/07/06 03:49:41;;;;;;;5.50;5.10;;;15.50;64.80;;;14.67;64.67;98392.16;4994266;28;20470;-72
2022/07/06 03:52:08;;;;;;;5.03;4.63;;;15.50;64.90;;;14.70;64.13;98392.53;5004539;28;20986;-71
2022/07/06 03:54:35;;;;;;;6.03;5.60;;;15.60;64.70;;;14.68;64.45;98386.50;4996295;28;20471;-72
2022/07/06 03:57:04;;;;;;;7.23;5.40;;;15.60;64.60;;;14.71;64.11;98391.47;4994946;28;20550;-77
2022/07/06 03:59:32;;;;;;;7.87;5.60;;;15.60;64.60;;;15.00;63.45;98386.22;5007317;28;20996;-72
2022/07/06 04:01:59;;;;;;;7.60;5.27;;;15.80;64.50;;;14.92;63.63;98391.97;5003661;28;20457;-74
2022/07/06 04:04:26;;;;;;;5.63;5.13;;;15.90;64.40;;;14.92;64.15;98389.25;5013138;28;20533;-72
2022/07/06 04:06:53;;;;;;;9.53;5.87;;;15.80;64.40;;;15.22;63.09;98388.34;4995502;28;20487;-72
2022/07/06 04:09:20;;;;;;;5.50;5.00;;;16.00;64.30;;;15.33;62.77;98396.75;5004278;28;20459;-76
2022/07/06 04:11:48;;;;;;;6.40;5.20;;;16.20;64.00;;;15.20;62.52;98395.09;5001281;28;20473;-71
2022/07/06 04:14:17;;;;;;;5.03;4.63;;;16.20;63.60;;;15.26;62.60;98400.44;5001905;28;20514;-77
2022/07/06 04:16:44;;;;;;;5.83;4.23;;;16.20;63.30;;;15.46;62.07;98393.78;5012253;28;21107;-71
2022/07/06 04:19:11;;;;;;;4.70;4.30;;;16.30;63.10;;;16.20;59.48;98402.41;5004153;28;20493;-72
2022/07/06 04:21:38;;;;;;;5.70;4.60;;;16.90;61.60;;;16.83;57.06;98402.44;4997736;28;20580;-73
2022/07/06 04:24:06;;;;;;;4.70;3.97;;;17.60;59.80;;;17.39;55.30;98399.78;4998640;28;20514;-71
2022/07/06 04:26:33;;;;;;;4.87;3.83;;;18.20;58.40;;;17.84;53.98;98400.69;4998621;28;20988;-74
2022/07/06 04:29:01;;;;;;;6.93;4.40;;;18.70;57.30;;;18.59;51.71;98406.72;4996526;28;20893;-71
2022/07/06 04:31:29;;;;;;;5.60;4.77;;;19.30;56.20;;;18.75;51.06;98402.25;4994729;28;20559;-75
2022/07/06 04:33:56;;;;;;;3.90;3.60;;;19.70;54.90;;;18.53;51.37;98414.06;4999606;28;21097;-73
2022/07/06 04:36:23;;;;;;;4.40;4.00;;;19.50;54.60;;;18.31;51.92;98417.66;4995142;28;20519;-70
2022/07/06 04:38:50;;;;;;;6.30;4.53;;;19.20;55.10;;;17.72;53.29;98399.97;4993295;28;20483;-78
2022/07/06 04:41:18;;;;;;;4.53;4.23;;;18.80;55.40;;;17.48;54.05;98421.22;5006302;28;20490;-77
2022/07/06 04:43:45;;;;;;;4.50;4.10;;;18.50;55.60;;;16.87;56.10;98413.69;5005972;28;21248;-78
2022/07/06 04:46:12;;;;;;;5.90;3.83;;;18.10;56.20;;;16.64;56.96;98419.03;5000126;28;20488;-76
2022/07/06 04:48:42;;;;;;;4.30;4.00;;;17.70;56.90;;;16.37;57.93;98416.06;4998528;28;21006;-79
2022/07/06 04:51:09;;;;;;;5.30;4.47;;;17.50;57.40;;;16.45;57.36;98439.41;5018875;28;20478;-77
2022/07/06 04:53:37;;;;;;;4.60;4.20;;;17.50;57.70;;;16.14;57.99;98432.28;5001011;28;20447;-77
2022/07/06 04:56:06;;;;;;;4.97;4.57;;;17.10;57.80;;;15.78;58.13;98368.84;4993665;28;20455;-82
2022/07/06 04:58:33;;;;;;;4.20;3.80;;;17.10;58.20;;;15.87;59.43;98437.41;4999119;28;20816;-80
2022/07/06 05:01:01;;;;;;;4.60;4.20;;;16.80;58.40;;;16.40;57.97;98440.97;5004291;28;20467;-78
2022/07/06 05:03:28;;;;;;;4.47;4.07;;;17.10;58.60;;;16.60;57.18;98447.06;5018163;28;21044;-77
2022/07/06 05:05:57;;;;;;;4.30;3.90;;;17.40;58.10;;;16.38;57.22;98434.94;4998220;28;20467;-74
2022/07/06 05:08:24;;;;;;;6.33;4.30;;;17.40;57.80;;;16.67;56.82;98439.53;4999126;28;20558;-73
2022/07/06 05:10:51;;;;;;;5.23;4.73;;;17.50;57.80;;;17.48;54.66;98452.09;4997091;28;20467;-74
2022/07/06 05:13:19;;;;;;;5.67;3.70;;;18.10;57.40;;;17.55;54.10;98452.75;4996614;28;20456;-74
2022/07/06 05:15:46;;;;;;;4.53;4.13;;;18.40;56.30;;;17.41;54.35;98445.97;5002112;28;20537;-74
2022/07/06 05:18:14;;;;;;;4.43;3.93;;;18.40;56.30;;;17.51;54.08;98457.03;4997990;28;20889;-73
2022/07/06 05:20:42;;;;;;;7.60;4.83;;;18.40;56.30;;;17.66;54.03;98472.84;4999055;28;20472;-73
2022/07/06 05:23:11;;;;;;;4.73;4.43;;;18.50;56.40;;;18.09;52.13;98412.22;4998394;28;20550;-74
2022/07/06 05:25:39;;;;;;;6.00;3.93;;;19.20;55.70;;;17.82;53.55;98459.41;4994692;28;20526;-75
2022/07/06 05:28:06;;;;;;;4.37;3.70;;;19.00;55.40;;;17.32;54.91;98461.13;4992964;28;20483;-75
2022/07/06 05:30:33;;;;;;;3.90;3.47;;;18.50;55.60;;;16.99;56.26;98467.16;4999745;28;20458;-74
2022/07/06 05:33:01;;;;;;;7.03;3.50;;;18.10;56.50;;;17.06;56.24;98471.63;4996332;28;20517;-74
2022/07/06 05:35:28;;;;;;;4.87;4.00;;;18.00;57.00;;;17.32;55.78;98472.03;4988427;28;20530;-73
2022/07/06 05:37:55;;;;;;;6.10;3.80;;;18.10;57.30;;;17.85;54.97;98458.91;4995449;28;20943;-74
2022/07/06 05:40:24;;;;;;;4.13;3.60;;;18.40;57.40;;;19.63;49.29;98417.44;4998285;28;20491;-74
2022/07/06 05:42:51;;;;;;;5.50;3.47;;;20.20;55.70;;;20.60;47.01;98464.75;4996647;28;20475;-74
2022/07/06 05:45:18;;;;;;;4.43;3.70;;;21.40;53.30;;;19.32;50.02;98463.81;5010249;28;20850;-76
2022/07/06 05:50:30;;;;;;;4.10;3.47;;;20.10;53.60;;;18.97;50.47;98471.41;4994432;28;20470;-74
2022/07/06 05:52:59;;;;;;;4.57;3.70;;;20.00;53.70;;;20.18;46.98;98455.56;4997711;28;20520;-74
2022/07/06 05:55:28;;;;;;;4.17;3.80;;;21.00;52.80;;;19.84;48.47;98469.59;4994950;28;20880;-74
2022/07/06 05:57:56;;;;;;;4.17;3.77;;;21.10;52.40;;;20.20;48.43;98482.72;4996295;28;20447;-74
2022/07/06 06:00:25;;;;;;;4.10;3.33;;;21.20;52.60;;;20.16;47.84;98476.94;4996883;28;20543;-76
2022/07/06 06:02:53;;;;;;;6.23;3.40;;;21.40;52.10;;;19.88;49.21;98472.66;5012602;28;20976;-74
2022/07/06 06:05:21;;;;;;;3.90;3.40;;;21.10;52.80;;;21.72;44.06;98475.28;4999564;28;20462;-75
2022/07/06 06:07:50;;;;;;;3.63;3.33;;;22.60;51.20;;;21.34;44.45;98474.75;4995014;28;20487;-74
2022/07/06 06:10:19;;;;;;;11.93;3.30;;;22.70;50.10;;;21.28;44.76;98478.59;5001418;28;20454;-74
2022/07/06 06:12:48;;;;;;;10.13;3.70;;;22.30;50.50;;;21.62;43.52;98464.28;5000731;28;20555;-75
2022/07/06 06:15:15;;;;;;;3.97;3.30;;;22.70;50.10;;;21.94;42.85;98463.13;5011108;28;20868;-74
2022/07/06 06:17:43;;;;;;;3.20;2.97;;;23.10;49.30;;;21.71;43.15;98470.06;5006965;28;20508;-74
2022/07/06 06:20:13;;;;;;;7.23;2.93;;;23.20;49.10;;;22.40;41.90;98459.38;5015753;28;20514;-74
2022/07/06 06:22:48;;;;;;;4.90;3.30;;;23.60;49.10;;;22.79;41.06;98466.06;5016151;28;20584;-73
2022/07/06 06:25:15;;;;;;;3.43;3.13;;;24.30;48.40;;;21.88;42.60;98467.00;4996975;28;20523;-74
2022/07/06 06:27:43;;;;;;;3.87;2.93;;;23.60;48.20;;;21.46;43.69;98471.72;5003382;28;20793;-74
2022/07/06 06:30:13;;;;;;;5.23;3.03;;;23.10;48.70;;;21.08;44.22;98477.50;4996921;28;20553;-75
2022/07/06 06:32:41;;;;;;;4.03;3.60;;;22.50;49.10;;;20.10;47.80;98467.88;4999788;28;20686;-75
2022/07/06 06:35:09;;;;;;;3.90;3.60;;;21.70;50.10;;;19.60;48.24;98475.50;5001896;28;20460;-75
2022/07/06 06:37:37;;;;;;;4.10;3.80;;;21.00;50.70;;;18.98;50.44;98481.28;5000534;28;20958;-74
2022/07/06 06:40:07;;;;;;;5.90;3.60;;;20.10;52.00;;;19.02;50.45;98478.88;5000033;28;20506;-73
2022/07/06 06:42:37;;;;;;;4.20;3.60;;;19.90;52.40;;;19.18;50.57;98484.50;5000348;28;20474;-73
2022/07/06 06:45:06;;;;;;;4.53;4.00;;;20.00;53.00;;;19.53;48.92;98481.22;4991956;28;20462;-72
2022/07/06 06:47:35;;;;;;;3.47;2.53;;;20.30;52.50;;;19.35;47.91;98478.91;4997461;28;20536;-74
2022/07/06 06:50:03;;;;;;;5.23;3.50;;;20.20;51.00;;;19.02;48.89;98445.19;4999407;28;20459;-74
2022/07/06 06:52:30;;;;;;;5.33;3.70;;;20.20;51.50;;;19.12;49.25;98480.88;5004172;28;20462;-74
2022/07/06 06:54:57;;;;;;;5.63;3.37;;;20.00;51.90;;;19.13;50.26;98474.31;4997202;28;21014;-75
2022/07/06 06:57:25;;;;;;;7.50;3.63;;;20.00;52.60;;;19.33;49.65;98472.81;5000906;28;20862;-74
2022/07/06 06:59:52;;;;;;;2.97;2.77;;;20.10;52.50;;;19.56;47.83;98462.59;5000306;28;21288;-75
2022/07/06 07:02:19;;;;;;;3.43;2.83;;;20.40;51.50;;;19.83;47.14;98481.66;5001131;28;20463;-75
2022/07/06 07:04:48;;;;;;;4.20;2.70;;;20.50;50.90;;;19.96;46.71;98473.00;5001709;28;20517;-75
2022/07/06 07:07:15;;;;;;;2.97;2.67;;;20.80;50.90;;;20.20;46.19;98469.84;5000611;28;20475;-75
2022/07/06 07:09:42;;;;;;;4.30;2.67;;;20.90;50.70;;;20.26;45.56;98476.19;5002899;28;20464;-76
2022/07/06 07:12:11;;;;;;;3.17;2.87;;;21.10;50.50;;;20.28;46.24;98476.72;4997278;28;20460;-75
2022/07/06 07:14:39;;;;;;;2.97;2.67;;;21.10;50.50;;;20.25;47.11;98480.00;5003909;28;20525;-77
2022/07/06 07:17:06;;;;;;;3.37;2.43;;;21.20;51.00;;;20.56;46.43;98479.28;5002057;28;20554;-73
2022/07/06 07:19:33;;;;;;;5.00;2.80;;;21.40;51.10;;;20.75;45.08;98491.41;5017776;28;20467;-73
2022/07/06 07:22:03;;;;;;;4.33;2.83;;;21.50;50.20;;;20.53;45.26;98494.34;4999223;28;20977;-74
2022/07/06 07:24:31;;;;;;;2.83;2.63;;;21.40;50.10;;;20.63;44.83;98490.84;5003397;28;20973;-73
2022/07/06 07:26:58;;;;;;;4.70;2.70;;;21.40;49.80;;;20.42;44.04;98421.34;4999826;28;20489;-72
2022/07/06 07:29:26;;;;;;;2.70;2.50;;;21.60;49.60;;;20.98;43.89;98481.06;5005420;28;20502;-73
2022/07/06 07:31:53;;;;;;;3.70;2.50;;;21.80;49.50;;;20.62;44.96;98473.53;4997503;28;20475;-73
2022/07/06 07:34:21;;;;;;;3.13;2.87;;;21.50;49.60;;;20.57;44.80;98475.44;5000421;28;20495;-74
2022/07/06 07:36:48;;;;;;;3.00;2.70;;;21.40;49.80;;;20.62;44.78;98473.53;5017994;28;20942;-72
2022/07/06 07:39:17;;;;;;;4.37;3.10;;;21.50;49.70;;;20.42;45.31;98484.47;5004075;28;20463;-73
2022/07/06 07:41:44;;;;;;;3.93;2.40;;;21.30;49.60;;;20.47;45.06;98487.22;4998689;28;20947;-72
2022/07/06 07:44:12;;;;;;;4.40;2.53;;;21.30;49.60;;;20.47;44.37;98487.22;4992784;28;20537;-73
2022/07/06 07:46:39;;;;;;;4.77;3.07;;;21.30;49.40;;;20.45;44.72;98483.91;5000167;28;20467;-73
2022/07/06 07:49:07;;;;;;;3.90;2.67;;;21.30;49.40;;;20.50;44.16;98486.66;5012671;28;20467;-72
2022/07/06 07:51:35;;;;;;;3.80;3.07;;;21.30;49.10;;;20.25;44.07;98441.59;5000912;28;20445;-73
2022/07/06 07:54:02;;;;;;;2.70;2.50;;;21.30;49.10;;;20.35;44.61;98484.72;4997896;28;20642;-73
2022/07/06 07:56:30;;;;;;;3.97;2.80;;;21.30;49.10;;;20.50;44.38;98481.19;5000256;28;20528;-73
2022/07/06 07:58:58;;;;;;;3.87;2.60;;;21.20;49.20;;;20.17;43.32;98434.72;4999776;28;20533;-75
2022/07/06 08:01:25;;;;;;;5.43;2.70;;;21.20;48.40;;;20.67;43.63;98479.03;4999613;28;20463;-72
2022/07/06 08:03:52;;;;;;;3.93;2.77;;;21.40;48.80;;;20.84;42.83;98469.75;5012015;28;20195;-72
2022/07/06 08:06:19;;;;;;;2.80;2.60;;;21.60;48.60;;;20.44;42.74;98476.78;4998883;28;20564;-72
2022/07/06 08:08:46;;;;;;;2.40;2.30;;;21.40;47.60;;;20.51;43.38;98480.09;5012621;28;20510;-72
2022/07/06 08:11:14;;;;;;;5.53;2.87;;;21.30;48.20;;;20.56;42.57;98485.59;4998349;28;20514;-73
2022/07/06 08:13:42;;;;;;;2.30;2.10;;;21.30;47.90;;;20.60;41.62;98485.88;4997822;28;20464;-72
2022/07/06 08:16:10;;;;;;;5.50;2.50;;;21.40;47.40;;;20.44;42.82;98471.28;5001115;28;20468;-73
2022/07/06 08:18:37;;;;;;;2.53;2.33;;;21.30;47.80;;;20.56;42.23;98474.63;5001549;28;20484;-72
2022/07/06 08:21:06;;;;;;;2.50;2.20;;;21.40;47.80;;;20.51;43.18;98488.31;5015611;28;20487;-73
2022/07/06 08:23:34;;;;;;;2.90;2.70;;;21.40;47.90;;;20.37;42.52;98482.53;5002940;28;20522;-73
2022/07/06 08:26:01;;;;;;;4.50;2.87;;;21.20;47.40;;;20.71;42.34;98484.00;5001738;28;20567;-73
2022/07/06 08:28:28;;;;;;;2.50;1.70;;;21.40;47.70;;;20.71;41.52;98481.25;4999041;28;20599;-73
2022/07/06 08:30:58;;;;;;;2.37;2.17;;;21.50;47.00;;;20.79;39.91;98488.94;5003042;28;20567;-72
2022/07/06 08:33:25;;;;;;;3.70;2.17;;;21.50;46.30;;;20.91;39.85;98473.06;4995284;28;20463;-73
2022/07/06 08:35:53;;;;;;;4.07;2.30;;;21.70;46.20;;;21.28;40.04;98490.41;4997690;28;20502;-68
2022/07/06 08:38:22;;;;;;;4.73;2.40;;;22.00;46.50;;;21.16;40.15;98485.19;4998290;28;20825;-81
2022/07/06 08:40:51;;;;;;;2.07;1.80;;;21.90;46.20;;;20.92;40.18;98487.63;5002317;28;20467;-76
2022/07/06 08:43:19;;;;;;;1.73;1.63;;;21.70;45.80;;;20.93;39.46;98486.56;5001118;28;20538;-75
2022/07/06 08:45:49;;;;;;;1.80;1.70;;;21.80;45.70;;;20.85;39.96;98465.94;4996253;28;20965;-75
2022/07/06 08:48:19;;;;;;;2.63;1.90;;;21.70;45.80;;;21.10;40.11;98478.03;5004402;28;20874;-76
2022/07/06 08:50:49;;;;;;;2.83;2.33;;;21.80;46.20;;;21.27;40.29;98474.19;4995981;28;20560;-75
2022/07/06 08:53:17;;;;;;;3.57;2.57;;;22.00;46.50;;;21.16;40.37;98482.44;5001350;28;20982;-75
2022/07/06 08:55:44;;;;;;;2.57;2.37;;;21.90;46.40;;;21.15;40.51;98475.28;4995267;28;20536;-83
2022/07/06 08:58:14;;;;;;;5.10;2.30;;;21.90;46.50;;;21.43;40.77;98481.31;4997473;28;20571;-78
2022/07/06 09:00:43;;;;;;;3.60;2.53;;;22.10;46.80;;;21.39;39.99;98479.44;4996235;28;21287;-78
2022/07/06 09:03:13;;;;;;;5.57;2.20;;;22.20;46.50;;;21.42;40.43;98492.63;4995531;28;20530;-79
2022/07/06 09:05:47;;;;;;;3.07;2.77;;;22.20;46.60;;;21.35;40.57;98479.16;5002941;28;20486;-76
2022/07/06 09:08:15;;;;;;;3.50;2.50;;;22.10;46.50;;;21.78;39.82;98476.94;4995090;28;20588;-80
2022/07/06 09:10:42;;;;;;;4.30;2.60;;;22.40;46.60;;;21.75;39.20;98488.47;4996807;28;21053;-78
2022/07/06 09:13:10;;;;;;;3.27;2.73;;;22.50;45.90;;;21.43;39.55;98486.81;4997030;28;20455;-78
2022/07/06 09:15:39;;;;;;;3.63;2.50;;;22.20;45.80;;;21.48;39.11;98473.09;4997466;28;20467;-79
2022/07/06 09:18:07;;;;;;;3.07;2.80;;;22.20;45.70;;;21.52;39.90;98478.84;4996128;28;20523;-72
2022/07/06 09:20:35;;;;;;;3.40;2.33;;;22.20;46.00;;;21.60;39.60;98463.72;4996001;28;20464;-73
2022/07/06 09:23:06;;;;;;;2.83;2.20;;;22.40;45.90;;;21.58;40.03;98474.16;5000081;28;20880;-73
2022/07/06 09:25:34;;;;;;;3.03;2.10;;;22.30;46.20;;;21.81;40.35;98469.22;5002386;28;20551;-74
2022/07/06 09:28:02;;;;;;;3.80;2.70;;;22.50;46.80;;;22.16;39.08;98475.72;5013375;28;20472;-71
2022/07/06 09:30:30;;;;;;;4.67;2.50;;;22.80;46.20;;;22.14;39.16;98459.50;4998002;28;20477;-72
2022/07/06 09:33:00;;;;;;;3.97;2.67;;;22.90;46.20;;;22.47;38.67;98465.44;4996741;28;20464;-73
2022/07/06 09:35:29;;;;;;;3.20;2.57;;;23.10;46.30;;;22.33;39.05;98465.19;4994556;28;20465;-69
2022/07/06 09:38:07;;;;;;;4.83;2.10;;;23.10;46.30;;;22.27;39.37;98471.81;4997291;28;20496;-70
2022/07/06 09:40:37;;;;;;;4.67;2.70;;;23.00;46.40;;;22.38;38.93;98466.28;5015416;28;20458;-73
2022/07/06 09:43:16;;;;;;;3.60;2.43;;;23.10;46.40;;;22.40;37.96;98469.56;5017521;28;20530;-72
2022/07/06 09:45:46;;;;;;;3.97;2.83;;;23.10;45.60;;;21.96;38.44;98471.94;4996061;28;20466;-70
2022/07/06 09:48:18;;;;;;;3.10;2.80;;;22.80;45.30;;;21.87;39.25;98468.94;4998798;28;20478;-72
2022/07/06 09:50:48;;;;;;;2.97;2.67;;;22.60;45.80;;;22.00;38.21;98477.72;5004709;28;20473;-71
2022/07/06 09:53:16;;;;;;;4.73;2.70;;;22.70;45.30;;;22.22;38.14;98477.34;4995162;28;20475;-71
2022/07/06 09:55:46;;;;;;;4.20;2.47;;;22.80;45.50;;;22.25;38.02;98485.03;5018577;28;20451;-71
2022/07/06 09:58:14;;;;;;;2.67;2.47;;;22.90;45.40;;;22.05;38.97;98481.25;5014999;28;20556;-72
2022/07/06 10:00:41;;;;;;;2.87;2.33;;;22.90;45.70;;;21.88;38.73;98491.75;4995921;28;20462;-69
2022/07/06 10:03:09;;;;;;;2.40;2.10;;;22.70;45.50;;;22.15;37.87;98485.06;5003642;28;20547;-71
2022/07/06 10:05:38;;;;;;;4.57;2.73;;;22.80;45.30;;;22.47;37.72;98470.94;4999532;28;20539;-73
2022/07/06 10:08:09;;;;;;;3.27;2.50;;;23.00;45.40;;;22.38;37.34;98475.34;4996303;28;20486;-73
2022/07/06 10:10:40;;;;;;;2.80;2.50;;;23.20;45.10;;;22.31;37.47;98481.16;4997340;28;20466;-72
2022/07/06 10:13:08;;;;;;;5.03;2.57;;;23.00;45.10;;;22.24;37.26;98472.41;4993871;28;20465;-78
2022/07/06 10:15:40;;;;;;;3.50;2.20;;;23.00;44.70;;;22.47;37.42;98479.19;4995951;28;20458;-77
2022/07/06 10:18:09;;;;;;;5.27;2.87;;;23.10;44.90;;;22.80;36.32;98470.47;4993811;28;20464;-78
2022/07/06 10:20:40;;;;;;;2.13;2.03;;;23.40;44.70;;;22.73;36.50;98478.22;5000893;28;20467;-79
2022/07/06 10:23:09;;;;;;;2.30;2.10;;;23.40;44.70;;;23.25;35.66;98486.13;4994401;28;20780;-80
2022/07/06 10:25:37;;;;;;;2.20;2.10;;;23.70;44.50;;;23.58;35.24;98478.97;5012911;28;20464;-79
2022/07/06 10:28:13;;;;;;;2.70;2.20;;;24.10;44.50;;;23.66;35.39;98476.69;4998189;28;20483;-80